AirNav   Free Bose QuietComfort 20
 
 1199 users online  

FA91 Orange County Convention Center Heliport
Orlando, Florida, USA

GOING TO ORLANDO?


FAA INFORMATION EFFECTIVE 05 DECEMBER 2019

Location

FAA Identifier: FA91
Lat/Long: 28-25-51.0400N 081-27-22.6700W
28-25.850667N 081-27.377833W
28.4308444,-81.4562972
(estimated)
Elevation: 92 ft. / 28 m (estimated)
From city: 8 miles SW of ORLANDO, FL
Time zone: UTC -5 (UTC -4 during Daylight Saving Time)
Zip code: 32819

Heliport Operations

Heliport use: Private use. Permission required prior to landing
Activation date: 10/2017
Control tower: no
ARTCC: JACKSONVILLE CENTER
FSS: SAINT PETERSBURG FLIGHT SERVICE STATION
Attendance: 
Wind indicator: lighted
Segmented circle: no

Heliport Communications

WX ASOS at MCO (8 nm E): PHONE 407-855-5235
WX AWOS-3PT at ISM (9 nm S): 128.775 (407-847-0533)
WX ASOS at ORL (9 nm NE): PHONE 407-658-6753

Nearby radio navigation aids

VOR radial/distance  VOR name  Freq  Var
ORLr224/9.3ORLANDO VORTAC112.2000E
LALr047/39.8LAKELAND VORTAC116.0001E

Heliport Services

Runway Information

Helipad H1

Dimensions: 62 x 62 ft. / 19 x 19 m
Surface: concrete, in good condition
Runway edge lights: PERI
Latitude: 28-25.850667N
Longitude: 081-27.377833W
Elevation: 92.0 ft.
Traffic pattern: leftleft
Markings: NSTD

Heliport Ownership and Management from official FAA records

Ownership: Privately-owned
Owner: ORANGE COUNTY CONVENTION CENTER
9400 UNIVERSAL BLVD
ORLANDO, FL 32819
Manager: HECTOR CLEMENTE
P.O. BOX 691509
ORLANDO, FL 32869-1509
Phone (407) 685-7112

Additional Remarks

FOR CD CTC ORLANDO APCH AT 407-852-7553.

Instrument Procedures

There are no published instrument procedures at FA91.

Some nearby airports with instrument procedures:

KMCO - Orlando International Airport (8 nm E)
KISM - Kissimmee Gateway Airport (9 nm S)
KORL - Executive Airport (9 nm NE)
X04 - Orlando Apopka Airport (18 nm N)
KSFB - Orlando Sanford International Airport (24 nm NE)
 
Loc | Ops | Rwys | IFR | FBO | Links
Com | Nav | Svcs | Stats | Notes
Aerial photo
No photo
 
Airport distance calculator
Flying to Orange County Convention Center Heliport? Find the distance to fly.

From to FA91

Sunrise and sunset
Times for 05-Dec-2019
 Local
(UTC-5)
 Zulu
(UTC)
Morning civil twilight06:3911:39
Sunrise07:0512:05
Sunset17:2822:28
Evening civil twilight17:5422:54

Current date and time
Zulu (UTC)  06-Dec-2019 00:56:23
Local (UTC-5)  05-Dec-2019 19:56:23
 
METAR
KMCO 
7nm E 
052353Z 06006KT 10SM FEW200 BKN250 16/07 A3016 RMK AO2 SLP213 T01560072 10217 20144 53023
KISM 
9nm S 
052356Z 34004KT 10SM CLR 14/06 A3017 RMK AO2 SLP216 T01440061 10206 20139 53021
KORL 
10nm NE 
052353Z 05004KT 10SM CLR 16/04 A3016 RMK AO2 SLP217 T01610044 10217 20156 53020
TAF
KMCO 
7nm E 
052116Z 0521/0624 01007KT P6SM BKN250 FM060000 VRB03KT P6SM SCT250 FM061800 19006KT P6SM FEW040
KISM 
9nm S 
051735Z 0518/0618 02007KT P6SM SCT250 FM060000 VRB03KT P6SM SCT250 FM061700 19005KT P6SM FEW250
NOTAMs
Click for the latest NOTAMs
NOTAMs are issued by the DoD/FAA and will open in a separate window not controlled by AirNav.

 

 
 

Would you like to see your business listed on this page?

 If your business provides an interesting product or service to pilots, flight crews, aircraft, or users of the Orange County Convention Center Heliport, you should consider listing it here.  To start the listing process, click on the button below
 
Add a business
 

Other Pages about Orange County Convention Center Heliport

Update a link
 
Copyright © AirNav, LLC. All rights reserved. Privacy Policy  Contact